Tropical Cyclones
[Index]
Main Index Home Page Stock Weather Photos Extreme Storms Discussion Storm News and Storm Chasing Reports Tropical Cyclones / Hurricanes / Typhoons Weather Data and Links Wild Fires / Bushfires Weather Observation Techniques Weather Picture Catalogue Tornado Pictures and Reports Stock Video Footage and DVDs for sale
Season 2017-2018 Tropical Cyclone KENI Track Map
Season 2017-2018 Summaries (Operational Data): [AU] [SIO] [SPAC] [SH]
<<- Previous TC | 2017-2018 Season | Next TC ->>

click for intensity scale information  Lat/long Grid: Show Hide

 Date Labels: Show Hide

Operational Tropical Cyclone Data : JTWC Advisories

Name: KENI
Number: 1819

04 Apr 2018 00:00 UTC to 11 Apr 2018 18:00 UTC

    date/time    lat    long     hPa   cat  kts
2018-04-04 00   15.7   169.2    1005         15          
2018-04-04 06   15.7   169.5    1004         15          
2018-04-04 12   15.7   169.8    1004         15          
2018-04-04 18   15.7   170.1    1007         20          
2018-04-05 00   15.5   170.3    1004         20          
2018-04-05 06   15.0   170.4    1004         25          
2018-04-05 12   14.7   170.4    1004         25          
2018-04-05 18   14.5   170.5    1002         25          
2018-04-06 00   14.4   171.5    1004         25          
2018-04-06 06   14.9   171.9    1003         25          
2018-04-06 12   15.1   171.8    1003         25          
2018-04-06 18   15.2   171.6    1002         25          
2018-04-07 00   15.6   171.8    1001         30          
2018-04-07 06   16.1   171.6    1001         30          
2018-04-07 12   16.6   171.4    1002         30          
2018-04-07 18   17.0   171.0    1001         30          
2018-04-08 00   17.4   170.5    1003         30          
2018-04-08 06   16.9   170.1    1003         30          
2018-04-08 09   16.5   170.0    1000         30          
2018-04-08 12   16.3   170.4    1003         30          
2018-04-08 18   16.4   170.9    1001    1    35          
2018-04-09 00   16.7   171.4     997    1    40          
2018-04-09 06   17.2   172.6     992    1    45          
2018-04-09 12   17.4   173.8     990    2    55          
2018-04-09 18   17.9   175.3     986    3    65          
2018-04-10 00   18.7   177.0     983    3    70          
2018-04-10 06   19.5   179.2     971    3    85          
2018-04-10 12   21.1   178.7W    966    3    85          
2018-04-10 18   23.2   176.1W    963    3    85          
2018-04-11 00   25.5   174.5W    969    3    75          
2018-04-11 06   27.7   172.8W    973    3    65          
2018-04-11 12   30.5   171.4W    978    2    60          
2018-04-11 18   33.9   169.1W    982    2    55          
Winds are 10-min average.

Tropical cyclone tracks developed by Michael Bath using operational warnings and advisories and Google Maps.


[Australian Severe Weather index] [Copyright Notice] [Email Contacts] [Search This Site] [Privacy Policy]
Document: tropical_cyclone_keni.htm Updated: 11 March 2020